sensor_id;sensor_type;location;lat;lon;timestamp;temperature;humidity
15900;DHT22;8048;50.644;6.184;2022-07-19T00:01:42;18.70;66.60
15900;DHT22;8048;50.644;6.184;2022-07-19T00:04:08;18.70;67.20
15900;DHT22;8048;50.644;6.184;2022-07-19T00:06:33;18.60;67.40
15900;DHT22;8048;50.644;6.184;2022-07-19T00:08:59;18.70;67.50
15900;DHT22;8048;50.644;6.184;2022-07-19T00:11:24;18.60;67.60
15900;DHT22;8048;50.644;6.184;2022-07-19T00:13:50;18.50;68.10
15900;DHT22;8048;50.644;6.184;2022-07-19T00:16:16;18.50;69.00
15900;DHT22;8048;50.644;6.184;2022-07-19T00:18:41;18.50;69.10
15900;DHT22;8048;50.644;6.184;2022-07-19T00:21:07;18.50;69.00
15900;DHT22;8048;50.644;6.184;2022-07-19T00:23:33;18.40;69.30
15900;DHT22;8048;50.644;6.184;2022-07-19T00:25:58;18.30;69.50
15900;DHT22;8048;50.644;6.184;2022-07-19T00:28:24;18.30;70.00
15900;DHT22;8048;50.644;6.184;2022-07-19T00:30:50;18.30;69.90
15900;DHT22;8048;50.644;6.184;2022-07-19T00:33:15;18.20;70.10
15900;DHT22;8048;50.644;6.184;2022-07-19T00:35:41;18.10;70.60
15900;DHT22;8048;50.644;6.184;2022-07-19T00:38:09;18.10;71.40
15900;DHT22;8048;50.644;6.184;2022-07-19T00:40:36;18.00;71.20
15900;DHT22;8048;50.644;6.184;2022-07-19T00:43:03;17.90;72.40
15900;DHT22;8048;50.644;6.184;2022-07-19T00:45:28;17.90;72.00
15900;DHT22;8048;50.644;6.184;2022-07-19T00:47:54;18.00;72.90
15900;DHT22;8048;50.644;6.184;2022-07-19T00:50:21;18.20;71.90
15900;DHT22;8048;50.644;6.184;2022-07-19T00:52:54;18.10;71.60
15900;DHT22;8048;50.644;6.184;2022-07-19T00:55:21;17.90;71.70
15900;DHT22;8048;50.644;6.184;2022-07-19T00:57:47;17.80;72.00
15900;DHT22;8048;50.644;6.184;2022-07-19T01:00:15;17.90;72.40
15900;DHT22;8048;50.644;6.184;2022-07-19T01:02:41;18.10;74.20
15900;DHT22;8048;50.644;6.184;2022-07-19T01:05:09;18.20;72.90
15900;DHT22;8048;50.644;6.184;2022-07-19T01:07:35;18.10;71.80
15900;DHT22;8048;50.644;6.184;2022-07-19T01:10:04;17.90;72.20
15900;DHT22;8048;50.644;6.184;2022-07-19T01:12:30;17.90;72.40
15900;DHT22;8048;50.644;6.184;2022-07-19T01:14:57;18.00;72.80
15900;DHT22;8048;50.644;6.184;2022-07-19T01:17:23;17.90;72.30
15900;DHT22;8048;50.644;6.184;2022-07-19T01:19:49;18.00;72.50
15900;DHT22;8048;50.644;6.184;2022-07-19T01:22:15;18.20;72.80
15900;DHT22;8048;50.644;6.184;2022-07-19T01:24:40;18.10;72.80
15900;DHT22;8048;50.644;6.184;2022-07-19T01:27:06;18.20;73.10
15900;DHT22;8048;50.644;6.184;2022-07-19T01:29:35;18.00;72.50
15900;DHT22;8048;50.644;6.184;2022-07-19T01:32:02;18.00;72.70
15900;DHT22;8048;50.644;6.184;2022-07-19T01:34:28;18.00;72.50
15900;DHT22;8048;50.644;6.184;2022-07-19T01:36:54;18.00;72.50
15900;DHT22;8048;50.644;6.184;2022-07-19T01:39:19;18.00;73.10
15900;DHT22;8048;50.644;6.184;2022-07-19T01:41:45;18.10;73.10
15900;DHT22;8048;50.644;6.184;2022-07-19T01:44:10;17.90;72.90
15900;DHT22;8048;50.644;6.184;2022-07-19T01:46:36;18.00;73.70
15900;DHT22;8048;50.644;6.184;2022-07-19T01:49:01;17.90;73.60
15900;DHT22;8048;50.644;6.184;2022-07-19T01:51:27;18.00;74.10
15900;DHT22;8048;50.644;6.184;2022-07-19T01:53:53;18.00;72.80
15900;DHT22;8048;50.644;6.184;2022-07-19T01:56:18;18.00;72.50
15900;DHT22;8048;50.644;6.184;2022-07-19T01:58:44;18.10;73.10
15900;DHT22;8048;50.644;6.184;2022-07-19T02:01:09;18.00;72.80
15900;DHT22;8048;50.644;6.184;2022-07-19T02:03:35;18.00;73.50
15900;DHT22;8048;50.644;6.184;2022-07-19T02:06:01;17.70;72.80
15900;DHT22;8048;50.644;6.184;2022-07-19T02:08:26;17.80;73.30
15900;DHT22;8048;50.644;6.184;2022-07-19T02:10:52;17.70;73.80
15900;DHT22;8048;50.644;6.184;2022-07-19T02:13:18;17.60;74.00
15900;DHT22;8048;50.644;6.184;2022-07-19T02:15:44;17.70;73.90
15900;DHT22;8048;50.644;6.184;2022-07-19T02:18:09;17.60;73.60
15900;DHT22;8048;50.644;6.184;2022-07-19T02:20:35;17.60;74.30
15900;DHT22;8048;50.644;6.184;2022-07-19T02:23:00;17.60;74.60
15900;DHT22;8048;50.644;6.184;2022-07-19T02:25:26;17.70;74.60
15900;DHT22;8048;50.644;6.184;2022-07-19T02:27:51;17.80;74.20
15900;DHT22;8048;50.644;6.184;2022-07-19T02:30:19;17.80;74.30
15900;DHT22;8048;50.644;6.184;2022-07-19T02:32:44;17.80;74.00
15900;DHT22;8048;50.644;6.184;2022-07-19T02:35:11;17.90;74.60
15900;DHT22;8048;50.644;6.184;2022-07-19T02:37:41;17.90;74.40
15900;DHT22;8048;50.644;6.184;2022-07-19T02:40:07;18.00;74.90
15900;DHT22;8048;50.644;6.184;2022-07-19T02:42:33;18.00;74.60
15900;DHT22;8048;50.644;6.184;2022-07-19T02:44:58;18.10;74.40
15900;DHT22;8048;50.644;6.184;2022-07-19T02:47:24;18.20;74.20
15900;DHT22;8048;50.644;6.184;2022-07-19T02:49:50;18.20;73.10
15900;DHT22;8048;50.644;6.184;2022-07-19T02:52:15;18.00;72.80
15900;DHT22;8048;50.644;6.184;2022-07-19T02:54:41;17.80;73.30
15900;DHT22;8048;50.644;6.184;2022-07-19T02:57:07;17.60;74.10
15900;DHT22;8048;50.644;6.184;2022-07-19T02:59:32;17.50;75.10
15900;DHT22;8048;50.644;6.184;2022-07-19T03:01:58;17.60;74.80
15900;DHT22;8048;50.644;6.184;2022-07-19T03:04:23;17.60;74.90
15900;DHT22;8048;50.644;6.184;2022-07-19T03:06:49;17.60;75.00
15900;DHT22;8048;50.644;6.184;2022-07-19T03:09:15;17.80;76.90
15900;DHT22;8048;50.644;6.184;2022-07-19T03:11:40;17.80;75.60
15900;DHT22;8048;50.644;6.184;2022-07-19T03:14:06;17.80;76.80
15900;DHT22;8048;50.644;6.184;2022-07-19T03:16:31;18.00;76.80
15900;DHT22;8048;50.644;6.184;2022-07-19T03:18:57;18.00;75.40
15900;DHT22;8048;50.644;6.184;2022-07-19T03:21:23;17.90;74.10
15900;DHT22;8048;50.644;6.184;2022-07-19T03:23:49;17.90;74.70
15900;DHT22;8048;50.644;6.184;2022-07-19T03:26:14;17.90;75.70
15900;DHT22;8048;50.644;6.184;2022-07-19T03:28:40;17.80;74.80
15900;DHT22;8048;50.644;6.184;2022-07-19T03:31:05;17.70;75.10
15900;DHT22;8048;50.644;6.184;2022-07-19T03:33:31;17.70;76.20
15900;DHT22;8048;50.644;6.184;2022-07-19T03:35:57;17.50;76.00
15900;DHT22;8048;50.644;6.184;2022-07-19T03:38:23;17.70;77.00
15900;DHT22;8048;50.644;6.184;2022-07-19T03:40:48;17.60;76.50
15900;DHT22;8048;50.644;6.184;2022-07-19T03:43:15;17.70;77.50
15900;DHT22;8048;50.644;6.184;2022-07-19T03:45:42;17.60;77.10
15900;DHT22;8048;50.644;6.184;2022-07-19T03:48:08;17.70;78.20
15900;DHT22;8048;50.644;6.184;2022-07-19T03:50:34;17.70;77.10
15900;DHT22;8048;50.644;6.184;2022-07-19T03:52:59;17.90;76.80
15900;DHT22;8048;50.644;6.184;2022-07-19T03:55:25;18.00;76.40
15900;DHT22;8048;50.644;6.184;2022-07-19T03:57:50;18.00;74.60
15900;DHT22;8048;50.644;6.184;2022-07-19T04:00:16;18.00;73.50
15900;DHT22;8048;50.644;6.184;2022-07-19T04:02:42;17.90;74.80
15900;DHT22;8048;50.644;6.184;2022-07-19T04:05:08;17.90;75.10
15900;DHT22;8048;50.644;6.184;2022-07-19T04:07:33;18.10;75.80
15900;DHT22;8048;50.644;6.184;2022-07-19T04:09:59;18.20;76.10
15900;DHT22;8048;50.644;6.184;2022-07-19T04:12:25;18.40;76.10
15900;DHT22;8048;50.644;6.184;2022-07-19T04:14:50;18.50;75.00
15900;DHT22;8048;50.644;6.184;2022-07-19T04:17:16;18.60;75.10
15900;DHT22;8048;50.644;6.184;2022-07-19T04:19:42;18.40;73.60
15900;DHT22;8048;50.644;6.184;2022-07-19T04:22:08;18.50;74.60
15900;DHT22;8048;50.644;6.184;2022-07-19T04:24:33;18.60;74.50
15900;DHT22;8048;50.644;6.184;2022-07-19T04:26:59;18.70;74.60
15900;DHT22;8048;50.644;6.184;2022-07-19T04:29:24;18.90;75.00
15900;DHT22;8048;50.644;6.184;2022-07-19T04:31:50;18.80;73.90
15900;DHT22;8048;50.644;6.184;2022-07-19T04:34:15;18.90;73.40
15900;DHT22;8048;50.644;6.184;2022-07-19T04:36:41;18.70;72.60
15900;DHT22;8048;50.644;6.184;2022-07-19T04:39:06;18.60;73.60
15900;DHT22;8048;50.644;6.184;2022-07-19T04:41:32;18.50;73.80
15900;DHT22;8048;50.644;6.184;2022-07-19T04:43:58;18.50;73.60
15900;DHT22;8048;50.644;6.184;2022-07-19T04:46:23;18.60;74.40
15900;DHT22;8048;50.644;6.184;2022-07-19T04:48:49;18.60;73.60
15900;DHT22;8048;50.644;6.184;2022-07-19T04:51:14;18.80;74.30
15900;DHT22;8048;50.644;6.184;2022-07-19T04:53:40;18.70;74.10
15900;DHT22;8048;50.644;6.184;2022-07-19T04:56:05;18.90;74.40
15900;DHT22;8048;50.644;6.184;2022-07-19T04:58:31;18.90;73.80
15900;DHT22;8048;50.644;6.184;2022-07-19T05:00:57;19.00;73.80
15900;DHT22;8048;50.644;6.184;2022-07-19T05:03:22;19.10;72.80
15900;DHT22;8048;50.644;6.184;2022-07-19T05:05:48;19.20;72.20
15900;DHT22;8048;50.644;6.184;2022-07-19T05:08:13;19.20;72.00
15900;DHT22;8048;50.644;6.184;2022-07-19T05:10:39;19.30;72.00
15900;DHT22;8048;50.644;6.184;2022-07-19T05:13:05;19.40;71.50
15900;DHT22;8048;50.644;6.184;2022-07-19T05:15:30;19.40;72.00
15900;DHT22;8048;50.644;6.184;2022-07-19T05:17:56;19.40;70.60
15900;DHT22;8048;50.644;6.184;2022-07-19T05:20:21;19.60;71.50
15900;DHT22;8048;50.644;6.184;2022-07-19T05:22:47;19.70;70.70
15900;DHT22;8048;50.644;6.184;2022-07-19T05:25:12;19.80;70.80
15900;DHT22;8048;50.644;6.184;2022-07-19T05:27:38;19.90;72.60
15900;DHT22;8048;50.644;6.184;2022-07-19T05:30:04;20.10;71.50
15900;DHT22;8048;50.644;6.184;2022-07-19T05:32:30;20.10;70.30
15900;DHT22;8048;50.644;6.184;2022-07-19T05:34:56;20.20;70.00
15900;DHT22;8048;50.644;6.184;2022-07-19T05:37:21;20.30;70.60
15900;DHT22;8048;50.644;6.184;2022-07-19T05:39:47;20.30;72.50
15900;DHT22;8048;50.644;6.184;2022-07-19T05:42:12;20.40;70.70
15900;DHT22;8048;50.644;6.184;2022-07-19T05:44:38;20.50;68.60
15900;DHT22;8048;50.644;6.184;2022-07-19T05:47:03;20.70;67.60
15900;DHT22;8048;50.644;6.184;2022-07-19T05:49:29;20.80;65.30
15900;DHT22;8048;50.644;6.184;2022-07-19T05:51:55;21.00;63.70
15900;DHT22;8048;50.644;6.184;2022-07-19T05:54:20;21.10;64.20
15900;DHT22;8048;50.644;6.184;2022-07-19T05:56:46;21.20;63.40
15900;DHT22;8048;50.644;6.184;2022-07-19T05:59:11;21.40;62.30
15900;DHT22;8048;50.644;6.184;2022-07-19T06:01:37;21.60;59.70
15900;DHT22;8048;50.644;6.184;2022-07-19T06:04:03;21.80;59.40
15900;DHT22;8048;50.644;6.184;2022-07-19T06:06:30;22.00;58.80
15900;DHT22;8048;50.644;6.184;2022-07-19T06:08:57;22.10;58.30
15900;DHT22;8048;50.644;6.184;2022-07-19T06:11:23;22.50;57.10
15900;DHT22;8048;50.644;6.184;2022-07-19T06:13:49;22.60;56.30
15900;DHT22;8048;50.644;6.184;2022-07-19T06:16:15;22.80;55.60
15900;DHT22;8048;50.644;6.184;2022-07-19T06:18:41;23.00;55.50
15900;DHT22;8048;50.644;6.184;2022-07-19T06:21:09;23.20;55.20
15900;DHT22;8048;50.644;6.184;2022-07-19T06:23:36;23.40;55.30
15900;DHT22;8048;50.644;6.184;2022-07-19T06:26:03;23.70;53.80
15900;DHT22;8048;50.644;6.184;2022-07-19T06:28:29;24.00;53.50
15900;DHT22;8048;50.644;6.184;2022-07-19T06:30:54;24.10;52.90
15900;DHT22;8048;50.644;6.184;2022-07-19T06:33:20;24.30;52.40
15900;DHT22;8048;50.644;6.184;2022-07-19T06:35:46;24.40;52.10
15900;DHT22;8048;50.644;6.184;2022-07-19T06:38:12;24.50;53.00
15900;DHT22;8048;50.644;6.184;2022-07-19T06:40:38;24.60;51.80
15900;DHT22;8048;50.644;6.184;2022-07-19T06:43:03;24.80;51.00
15900;DHT22;8048;50.644;6.184;2022-07-19T06:45:29;25.00;51.20
15900;DHT22;8048;50.644;6.184;2022-07-19T06:47:54;25.10;50.80
15900;DHT22;8048;50.644;6.184;2022-07-19T06:50:20;25.30;49.80
15900;DHT22;8048;50.644;6.184;2022-07-19T06:52:46;25.40;50.10
15900;DHT22;8048;50.644;6.184;2022-07-19T06:55:12;25.50;50.50
15900;DHT22;8048;50.644;6.184;2022-07-19T06:57:39;25.60;49.30
15900;DHT22;8048;50.644;6.184;2022-07-19T07:00:06;25.80;49.90
15900;DHT22;8048;50.644;6.184;2022-07-19T07:02:33;26.00;48.40
15900;DHT22;8048;50.644;6.184;2022-07-19T07:05:00;26.20;49.10
15900;DHT22;8048;50.644;6.184;2022-07-19T07:07:26;26.20;49.00
15900;DHT22;8048;50.644;6.184;2022-07-19T07:09:51;26.40;49.30
15900;DHT22;8048;50.644;6.184;2022-07-19T07:12:17;26.50;48.30
15900;DHT22;8048;50.644;6.184;2022-07-19T07:14:42;26.50;48.60
15900;DHT22;8048;50.644;6.184;2022-07-19T07:17:08;26.60;48.90
15900;DHT22;8048;50.644;6.184;2022-07-19T07:19:33;26.70;49.30
15900;DHT22;8048;50.644;6.184;2022-07-19T07:21:59;26.90;48.00
15900;DHT22;8048;50.644;6.184;2022-07-19T07:24:27;26.90;48.60
15900;DHT22;8048;50.644;6.184;2022-07-19T07:26:53;27.10;48.00
15900;DHT22;8048;50.644;6.184;2022-07-19T07:29:19;27.20;48.40
15900;DHT22;8048;50.644;6.184;2022-07-19T07:31:45;27.20;48.50
15900;DHT22;8048;50.644;6.184;2022-07-19T07:34:10;27.30;48.30
15900;DHT22;8048;50.644;6.184;2022-07-19T07:36:36;27.40;48.10
15900;DHT22;8048;50.644;6.184;2022-07-19T07:39:02;27.50;47.80
15900;DHT22;8048;50.644;6.184;2022-07-19T07:41:28;27.60;47.60
15900;DHT22;8048;50.644;6.184;2022-07-19T07:43:53;27.70;47.60
15900;DHT22;8048;50.644;6.184;2022-07-19T07:46:19;27.80;47.00
15900;DHT22;8048;50.644;6.184;2022-07-19T07:48:44;28.00;47.20
15900;DHT22;8048;50.644;6.184;2022-07-19T07:51:10;28.10;48.00
15900;DHT22;8048;50.644;6.184;2022-07-19T07:53:36;28.20;47.00
15900;DHT22;8048;50.644;6.184;2022-07-19T07:56:01;28.30;48.20
15900;DHT22;8048;50.644;6.184;2022-07-19T07:58:27;28.40;47.50
15900;DHT22;8048;50.644;6.184;2022-07-19T08:00:52;28.50;46.90
15900;DHT22;8048;50.644;6.184;2022-07-19T08:03:18;28.70;46.80
15900;DHT22;8048;50.644;6.184;2022-07-19T08:05:43;28.80;47.50
15900;DHT22;8048;50.644;6.184;2022-07-19T08:08:16;29.00;46.70
15900;DHT22;8048;50.644;6.184;2022-07-19T08:10:42;29.10;46.30
15900;DHT22;8048;50.644;6.184;2022-07-19T08:13:08;29.30;47.80
15900;DHT22;8048;50.644;6.184;2022-07-19T08:15:35;29.40;45.80
15900;DHT22;8048;50.644;6.184;2022-07-19T08:18:02;29.50;45.40
15900;DHT22;8048;50.644;6.184;2022-07-19T08:20:28;29.70;45.20
15900;DHT22;8048;50.644;6.184;2022-07-19T08:22:53;29.80;45.00
15900;DHT22;8048;50.644;6.184;2022-07-19T08:25:19;29.90;44.60
15900;DHT22;8048;50.644;6.184;2022-07-19T08:27:45;30.10;45.10
15900;DHT22;8048;50.644;6.184;2022-07-19T08:30:12;30.20;45.00
15900;DHT22;8048;50.644;6.184;2022-07-19T08:32:38;30.50;43.70
15900;DHT22;8048;50.644;6.184;2022-07-19T08:35:05;30.60;44.40
15900;DHT22;8048;50.644;6.184;2022-07-19T08:37:31;30.60;43.00
15900;DHT22;8048;50.644;6.184;2022-07-19T08:39:57;30.80;43.30
15900;DHT22;8048;50.644;6.184;2022-07-19T08:42:22;30.90;44.60
15900;DHT22;8048;50.644;6.184;2022-07-19T08:44:53;31.10;42.50
15900;DHT22;8048;50.644;6.184;2022-07-19T08:47:19;31.20;42.40
15900;DHT22;8048;50.644;6.184;2022-07-19T08:49:45;31.40;43.00
15900;DHT22;8048;50.644;6.184;2022-07-19T08:52:12;31.50;42.90
15900;DHT22;8048;50.644;6.184;2022-07-19T08:54:38;31.60;42.40
15900;DHT22;8048;50.644;6.184;2022-07-19T08:57:04;31.80;42.90
15900;DHT22;8048;50.644;6.184;2022-07-19T08:59:48;32.00;42.30
15900;DHT22;8048;50.644;6.184;2022-07-19T09:02:14;32.30;42.20
15900;DHT22;8048;50.644;6.184;2022-07-19T09:04:40;32.50;44.10
15900;DHT22;8048;50.644;6.184;2022-07-19T09:07:05;32.60;40.70
15900;DHT22;8048;50.644;6.184;2022-07-19T09:09:34;32.60;40.10
15900;DHT22;8048;50.644;6.184;2022-07-19T09:12:00;32.60;41.50
15900;DHT22;8048;50.644;6.184;2022-07-19T09:14:29;32.90;41.00
15900;DHT22;8048;50.644;6.184;2022-07-19T09:16:59;33.00;40.40
15900;DHT22;8048;50.644;6.184;2022-07-19T09:19:27;32.90;39.70
15900;DHT22;8048;50.644;6.184;2022-07-19T09:21:57;33.10;39.20
15900;DHT22;8048;50.644;6.184;2022-07-19T09:24:24;33.20;37.90
15900;DHT22;8048;50.644;6.184;2022-07-19T09:29:38;33.40;38.50
15900;DHT22;8048;50.644;6.184;2022-07-19T09:34:40;33.80;37.60
15900;DHT22;8048;50.644;6.184;2022-07-19T09:37:14;33.90;37.30
15900;DHT22;8048;50.644;6.184;2022-07-19T09:39:41;34.10;37.80
15900;DHT22;8048;50.644;6.184;2022-07-19T09:42:11;34.40;37.90
15900;DHT22;8048;50.644;6.184;2022-07-19T09:44:36;34.40;37.00
15900;DHT22;8048;50.644;6.184;2022-07-19T09:47:03;34.50;37.10
15900;DHT22;8048;50.644;6.184;2022-07-19T09:49:28;34.70;37.30
15900;DHT22;8048;50.644;6.184;2022-07-19T09:51:54;34.90;37.70
15900;DHT22;8048;50.644;6.184;2022-07-19T09:54:23;35.00;36.20
15900;DHT22;8048;50.644;6.184;2022-07-19T09:56:49;35.10;37.40
15900;DHT22;8048;50.644;6.184;2022-07-19T09:59:16;35.30;36.40
15900;DHT22;8048;50.644;6.184;2022-07-19T10:01:42;35.40;35.90
15900;DHT22;8048;50.644;6.184;2022-07-19T10:04:11;35.50;37.00
15900;DHT22;8048;50.644;6.184;2022-07-19T10:06:37;35.80;36.40
15900;DHT22;8048;50.644;6.184;2022-07-19T10:09:04;35.90;36.10
15900;DHT22;8048;50.644;6.184;2022-07-19T10:11:30;36.20;36.80
15900;DHT22;8048;50.644;6.184;2022-07-19T10:13:57;36.60;35.10
15900;DHT22;8048;50.644;6.184;2022-07-19T10:16:45;36.90;35.90
15900;DHT22;8048;50.644;6.184;2022-07-19T10:19:24;36.80;34.60
15900;DHT22;8048;50.644;6.184;2022-07-19T10:21:52;36.70;34.40
15900;DHT22;8048;50.644;6.184;2022-07-19T10:24:49;37.00;34.80
15900;DHT22;8048;50.644;6.184;2022-07-19T10:27:17;37.40;35.40
15900;DHT22;8048;50.644;6.184;2022-07-19T10:29:44;37.60;33.20
15900;DHT22;8048;50.644;6.184;2022-07-19T10:32:12;38.10;35.70
15900;DHT22;8048;50.644;6.184;2022-07-19T10:34:39;38.30;32.90
15900;DHT22;8048;50.644;6.184;2022-07-19T10:37:05;38.20;33.90
15900;DHT22;8048;50.644;6.184;2022-07-19T10:39:35;38.40;32.90
15900;DHT22;8048;50.644;6.184;2022-07-19T10:42:12;38.40;32.70
15900;DHT22;8048;50.644;6.184;2022-07-19T10:50:14;38.50;31.80
15900;DHT22;8048;50.644;6.184;2022-07-19T10:52:48;38.70;33.30
15900;DHT22;8048;50.644;6.184;2022-07-19T10:57:47;38.80;34.10
15900;DHT22;8048;50.644;6.184;2022-07-19T11:00:28;38.70;31.60
15900;DHT22;8048;50.644;6.184;2022-07-19T11:05:53;38.90;32.40
15900;DHT22;8048;50.644;6.184;2022-07-19T11:08:40;39.10;30.40
15900;DHT22;8048;50.644;6.184;2022-07-19T11:11:11;39.20;31.90
15900;DHT22;8048;50.644;6.184;2022-07-19T11:13:38;39.30;32.30
15900;DHT22;8048;50.644;6.184;2022-07-19T11:16:05;39.30;32.10
15900;DHT22;8048;50.644;6.184;2022-07-19T11:18:31;39.60;32.20
15900;DHT22;8048;50.644;6.184;2022-07-19T11:20:58;39.80;33.40
15900;DHT22;8048;50.644;6.184;2022-07-19T11:23:28;39.90;31.20
15900;DHT22;8048;50.644;6.184;2022-07-19T11:26:08;40.00;31.20
15900;DHT22;8048;50.644;6.184;2022-07-19T11:28:35;40.60;31.60
15900;DHT22;8048;50.644;6.184;2022-07-19T11:31:13;40.00;29.70
15900;DHT22;8048;50.644;6.184;2022-07-19T11:33:39;39.90;29.90
15900;DHT22;8048;50.644;6.184;2022-07-19T11:36:05;40.00;30.40
15900;DHT22;8048;50.644;6.184;2022-07-19T11:38:39;40.00;31.80
15900;DHT22;8048;50.644;6.184;2022-07-19T11:41:15;40.50;29.80
15900;DHT22;8048;50.644;6.184;2022-07-19T11:46:30;41.30;30.10
15900;DHT22;8048;50.644;6.184;2022-07-19T11:48:57;41.20;30.90
15900;DHT22;8048;50.644;6.184;2022-07-19T11:51:23;41.30;30.60
15900;DHT22;8048;50.644;6.184;2022-07-19T11:53:50;40.90;30.20
15900;DHT22;8048;50.644;6.184;2022-07-19T11:56:23;40.50;30.30
15900;DHT22;8048;50.644;6.184;2022-07-19T11:58:50;41.00;31.20
15900;DHT22;8048;50.644;6.184;2022-07-19T12:01:44;41.00;29.70
15900;DHT22;8048;50.644;6.184;2022-07-19T12:04:12;40.90;30.00
15900;DHT22;8048;50.644;6.184;2022-07-19T12:09:10;41.40;30.10
15900;DHT22;8048;50.644;6.184;2022-07-19T12:11:48;41.60;30.10
15900;DHT22;8048;50.644;6.184;2022-07-19T12:16:42;41.40;29.40
15900;DHT22;8048;50.644;6.184;2022-07-19T12:19:12;41.40;29.00
15900;DHT22;8048;50.644;6.184;2022-07-19T12:21:41;41.50;29.10
15900;DHT22;8048;50.644;6.184;2022-07-19T12:24:24;41.90;30.20
15900;DHT22;8048;50.644;6.184;2022-07-19T12:27:04;41.90;29.20
15900;DHT22;8048;50.644;6.184;2022-07-19T12:31:58;42.80;29.70
15900;DHT22;8048;50.644;6.184;2022-07-19T12:34:24;42.90;30.50
15900;DHT22;8048;50.644;6.184;2022-07-19T12:36:50;42.70;29.00
15900;DHT22;8048;50.644;6.184;2022-07-19T12:44:18;41.90;29.00
15900;DHT22;8048;50.644;6.184;2022-07-19T12:46:43;42.20;29.40
15900;DHT22;8048;50.644;6.184;2022-07-19T12:49:09;42.40;28.30
15900;DHT22;8048;50.644;6.184;2022-07-19T12:51:35;42.30;29.20
15900;DHT22;8048;50.644;6.184;2022-07-19T12:54:00;41.90;28.20
15900;DHT22;8048;50.644;6.184;2022-07-19T12:56:26;42.10;27.40
15900;DHT22;8048;50.644;6.184;2022-07-19T12:58:51;42.40;29.20
15900;DHT22;8048;50.644;6.184;2022-07-19T13:01:36;42.50;27.60
15900;DHT22;8048;50.644;6.184;2022-07-19T13:04:01;42.80;27.70
15900;DHT22;8048;50.644;6.184;2022-07-19T13:06:27;42.80;28.90
15900;DHT22;8048;50.644;6.184;2022-07-19T13:08:52;42.20;27.70
15900;DHT22;8048;50.644;6.184;2022-07-19T13:11:18;42.20;28.80
15900;DHT22;8048;50.644;6.184;2022-07-19T13:13:43;42.70;28.00
15900;DHT22;8048;50.644;6.184;2022-07-19T13:16:09;42.50;28.30
15900;DHT22;8048;50.644;6.184;2022-07-19T13:18:35;42.70;28.50
15900;DHT22;8048;50.644;6.184;2022-07-19T13:21:00;42.70;26.50
15900;DHT22;8048;50.644;6.184;2022-07-19T13:23:26;42.50;26.30
15900;DHT22;8048;50.644;6.184;2022-07-19T13:25:51;42.20;26.60
15900;DHT22;8048;50.644;6.184;2022-07-19T13:28:17;42.10;26.30
15900;DHT22;8048;50.644;6.184;2022-07-19T13:30:43;42.40;28.00
15900;DHT22;8048;50.644;6.184;2022-07-19T13:33:10;42.60;28.50
15900;DHT22;8048;50.644;6.184;2022-07-19T13:35:35;43.00;27.30
15900;DHT22;8048;50.644;6.184;2022-07-19T13:38:01;42.80;26.00
15900;DHT22;8048;50.644;6.184;2022-07-19T13:40:27;42.70;27.10
15900;DHT22;8048;50.644;6.184;2022-07-19T13:42:53;43.10;27.10
15900;DHT22;8048;50.644;6.184;2022-07-19T13:45:19;43.40;29.00
15900;DHT22;8048;50.644;6.184;2022-07-19T13:47:44;43.20;27.40
15900;DHT22;8048;50.644;6.184;2022-07-19T13:50:10;43.20;26.90
15900;DHT22;8048;50.644;6.184;2022-07-19T13:52:36;43.60;27.80
15900;DHT22;8048;50.644;6.184;2022-07-19T13:55:02;43.80;28.20
15900;DHT22;8048;50.644;6.184;2022-07-19T13:57:28;43.70;27.80
15900;DHT22;8048;50.644;6.184;2022-07-19T13:59:55;43.30;26.80
15900;DHT22;8048;50.644;6.184;2022-07-19T14:02:21;43.50;28.60
15900;DHT22;8048;50.644;6.184;2022-07-19T14:04:46;43.70;27.30
15900;DHT22;8048;50.644;6.184;2022-07-19T14:07:12;42.90;27.50
15900;DHT22;8048;50.644;6.184;2022-07-19T14:09:37;43.00;29.00
15900;DHT22;8048;50.644;6.184;2022-07-19T14:12:04;43.00;28.30
15900;DHT22;8048;50.644;6.184;2022-07-19T14:14:30;43.30;28.60
15900;DHT22;8048;50.644;6.184;2022-07-19T14:16:55;43.60;28.90
15900;DHT22;8048;50.644;6.184;2022-07-19T14:19:21;43.80;27.20
15900;DHT22;8048;50.644;6.184;2022-07-19T14:21:46;44.00;28.30
15900;DHT22;8048;50.644;6.184;2022-07-19T14:24:12;43.70;26.80
15900;DHT22;8048;50.644;6.184;2022-07-19T14:26:38;43.30;27.40
15900;DHT22;8048;50.644;6.184;2022-07-19T14:29:03;43.70;27.70
15900;DHT22;8048;50.644;6.184;2022-07-19T14:31:29;43.50;26.50
15900;DHT22;8048;50.644;6.184;2022-07-19T14:33:55;43.30;27.40
15900;DHT22;8048;50.644;6.184;2022-07-19T14:36:20;43.80;27.50
15900;DHT22;8048;50.644;6.184;2022-07-19T14:38:46;43.90;27.10
15900;DHT22;8048;50.644;6.184;2022-07-19T14:41:12;44.00;26.40
15900;DHT22;8048;50.644;6.184;2022-07-19T14:43:38;43.60;26.30
15900;DHT22;8048;50.644;6.184;2022-07-19T14:46:03;43.30;27.20
15900;DHT22;8048;50.644;6.184;2022-07-19T14:48:29;43.20;27.00
15900;DHT22;8048;50.644;6.184;2022-07-19T14:50:54;43.50;27.70
15900;DHT22;8048;50.644;6.184;2022-07-19T14:53:20;43.50;27.70
15900;DHT22;8048;50.644;6.184;2022-07-19T14:55:46;43.40;27.00
15900;DHT22;8048;50.644;6.184;2022-07-19T14:58:12;43.60;28.60
15900;DHT22;8048;50.644;6.184;2022-07-19T15:00:38;43.70;26.80
15900;DHT22;8048;50.644;6.184;2022-07-19T15:03:03;43.30;26.30
15900;DHT22;8048;50.644;6.184;2022-07-19T15:05:29;43.40;26.20
15900;DHT22;8048;50.644;6.184;2022-07-19T15:07:54;43.30;27.20
15900;DHT22;8048;50.644;6.184;2022-07-19T15:10:20;43.20;26.80
15900;DHT22;8048;50.644;6.184;2022-07-19T15:12:47;43.30;27.50
15900;DHT22;8048;50.644;6.184;2022-07-19T15:15:13;43.00;26.60
15900;DHT22;8048;50.644;6.184;2022-07-19T15:17:38;42.80;26.30
15900;DHT22;8048;50.644;6.184;2022-07-19T15:20:05;42.80;28.20
15900;DHT22;8048;50.644;6.184;2022-07-19T15:22:30;42.90;28.20
15900;DHT22;8048;50.644;6.184;2022-07-19T15:24:56;43.00;28.50
15900;DHT22;8048;50.644;6.184;2022-07-19T15:27:23;42.70;27.70
15900;DHT22;8048;50.644;6.184;2022-07-19T15:29:48;42.50;27.70
15900;DHT22;8048;50.644;6.184;2022-07-19T15:32:14;42.60;27.70
15900;DHT22;8048;50.644;6.184;2022-07-19T15:34:40;42.60;27.10
15900;DHT22;8048;50.644;6.184;2022-07-19T15:37:05;42.00;26.50
15900;DHT22;8048;50.644;6.184;2022-07-19T15:39:32;41.70;27.00
15900;DHT22;8048;50.644;6.184;2022-07-19T15:41:57;41.70;27.10
15900;DHT22;8048;50.644;6.184;2022-07-19T15:44:23;42.00;27.50
15900;DHT22;8048;50.644;6.184;2022-07-19T15:46:49;41.60;26.70
15900;DHT22;8048;50.644;6.184;2022-07-19T15:49:14;41.50;27.50
15900;DHT22;8048;50.644;6.184;2022-07-19T15:51:40;41.70;28.40
15900;DHT22;8048;50.644;6.184;2022-07-19T15:54:08;42.10;28.00
15900;DHT22;8048;50.644;6.184;2022-07-19T15:56:34;42.30;27.80
15900;DHT22;8048;50.644;6.184;2022-07-19T15:58:59;42.00;26.90
15900;DHT22;8048;50.644;6.184;2022-07-19T16:01:25;42.00;27.80
15900;DHT22;8048;50.644;6.184;2022-07-19T16:03:50;41.40;26.80
15900;DHT22;8048;50.644;6.184;2022-07-19T16:06:17;41.00;27.20
15900;DHT22;8048;50.644;6.184;2022-07-19T16:08:42;41.20;27.30
15900;DHT22;8048;50.644;6.184;2022-07-19T16:11:08;41.20;27.70
15900;DHT22;8048;50.644;6.184;2022-07-19T16:13:34;41.20;28.30